Time;durP1;ratioP1;P1;durP2;ratioP2;P2;SDS_P1;SDS_P2;PMS_P1;PMS_P2;Temp;Humidity;BMP_temperature;BMP_pressure;BME280_temperature;BME280_humidity;BME280_pressure;Samples;Min_cycle;Max_cycle;Signal;HPM_P1;HPM_P2
2022/11/18 00:00:46;;;;;;;1.80;0.60;;;;;;;6.95;100.00;93778.16;4947164;28;20205;-85
2022/11/18 00:03:11;;;;;;;2.43;0.60;;;;;;;6.98;100.00;93774.41;4956242;28;20262;-85
2022/11/18 00:05:36;;;;;;;1.07;0.50;;;;;;;7.10;100.00;93776.47;4968456;28;20199;-85
2022/11/18 00:08:02;;;;;;;1.23;0.60;;;;;;;7.12;100.00;93770.34;4976895;28;20216;-84
2022/11/18 00:10:27;;;;;;;1.17;0.80;;;;;;;6.96;100.00;93777.19;4954194;28;20188;-85
2022/11/18 00:15:37;;;;;;;1.77;0.70;;;;;;;6.81;100.00;93778.88;4977397;28;20676;-85
2022/11/18 00:18:02;;;;;;;3.20;0.87;;;;;;;6.76;100.00;93770.81;4977510;28;20192;-84
2022/11/18 00:20:27;;;;;;;1.00;0.70;;;;;;;6.93;100.00;93784.47;4977529;28;20211;-85
2022/11/18 00:22:53;;;;;;;2.67;0.87;;;;;;;7.04;100.00;93779.72;4978563;28;20696;-84
2022/11/18 00:25:18;;;;;;;1.20;0.50;;;;;;;7.23;99.63;93785.44;4978571;28;20267;-86
2022/11/18 00:27:43;;;;;;;2.30;0.70;;;;;;;7.12;100.00;93789.19;4976347;28;20192;-85
2022/11/18 00:30:09;;;;;;;1.70;0.67;;;;;;;7.27;99.12;93786.72;4967425;28;20700;-84
2022/11/18 00:32:35;;;;;;;2.83;0.60;;;;;;;7.33;99.16;93804.09;4983678;28;20256;-84
2022/11/18 00:35:00;;;;;;;1.70;0.60;;;;;;;7.24;99.68;93800.75;4977482;28;20184;-85
2022/11/18 00:37:25;;;;;;;0.73;0.57;;;;;;;7.17;100.00;93799.03;4948553;28;20347;-85
2022/11/18 00:39:51;;;;;;;1.27;0.53;;;;;;;7.19;99.09;93810.78;4966146;28;20587;-84
2022/11/18 00:43:16;;;;;;;5.20;0.60;;;;;;;7.33;98.58;93794.59;4951647;28;20204;-85
2022/11/18 00:45:10;;;;;;;2.97;0.70;;;;;;;7.14;99.18;93799.34;4945051;28;20665;-86
2022/11/18 00:47:36;;;;;;;0.80;0.60;;;;;;;7.33;98.71;93793.75;4948050;29;20201;-85
2022/11/18 00:50:01;;;;;;;0.50;0.50;;;;;;;7.23;98.79;93793.19;4967067;28;20184;-85
2022/11/18 00:52:26;;;;;;;2.53;0.67;;;;;;;7.21;99.45;93780.44;4973482;28;20240;-86
2022/11/18 00:54:51;;;;;;;1.47;0.70;;;;;;;7.19;99.41;93787.56;4964938;28;20553;-85
2022/11/18 00:57:17;;;;;;;1.33;0.53;;;;;;;7.18;100.00;93770.47;4974520;28;20654;-85
2022/11/18 00:59:42;;;;;;;1.27;0.50;;;;;;;7.32;99.57;93776.66;4967174;28;20231;-85
2022/11/18 01:02:07;;;;;;;1.83;0.50;;;;;;;7.18;100.00;93777.41;4964629;28;20231;-86
2022/11/18 01:04:33;;;;;;;2.00;0.70;;;;;;;7.18;100.00;93773.03;4973438;28;20645;-85
2022/11/18 01:06:58;;;;;;;1.07;0.60;;;;;;;7.07;100.00;93783.75;4975308;28;20315;-84
2022/11/18 01:09:23;;;;;;;2.77;0.80;;;;;;;7.06;100.00;93788.09;4967985;28;20711;-85
2022/11/18 01:14:32;;;;;;;1.60;0.70;;;;;;;7.06;100.00;93798.41;4967810;28;20274;-85
2022/11/18 01:16:58;;;;;;;2.93;0.80;;;;;;;7.00;100.00;93799.13;4973619;28;20263;-85
2022/11/18 01:19:23;;;;;;;0.77;0.60;;;;;;;6.96;100.00;93802.19;4943973;28;20208;-85
2022/11/18 01:21:49;;;;;;;2.37;0.67;;;;;;;6.85;100.00;93797.41;4971657;28;20219;-86
2022/11/18 01:24:14;;;;;;;0.70;0.53;;;;;;;6.84;100.00;93803.53;4963659;28;20731;-84
2022/11/18 01:26:39;;;;;;;1.30;0.90;;;;;;;6.88;100.00;93794.47;4957972;28;20723;-84
2022/11/18 01:29:05;;;;;;;0.70;0.70;;;;;;;6.80;100.00;93803.88;4963464;28;20213;-85
2022/11/18 01:31:30;;;;;;;0.97;0.67;;;;;;;6.99;100.00;93802.66;4963520;28;20212;-85
2022/11/18 01:33:55;;;;;;;1.20;0.80;;;;;;;6.94;100.00;93812.69;4971747;28;20535;-85
2022/11/18 01:36:26;;;;;;;2.10;0.90;;;;;;;6.86;100.00;93804.97;4948507;28;20201;-84
2022/11/18 01:38:52;;;;;;;1.10;0.70;;;;;;;6.86;100.00;93811.91;4964649;28;20573;-85
2022/11/18 01:41:19;;;;;;;0.70;0.70;;;;;;;6.93;100.00;93816.22;4967237;28;20619;-84
2022/11/18 01:43:55;;;;;;;0.70;0.70;;;;;;;6.97;100.00;93814.91;4968630;28;20538;-84
2022/11/18 01:46:22;;;;;;;1.43;0.93;;;;;;;6.79;100.00;93819.50;4980174;28;20197;-84
2022/11/18 01:49:09;;;;;;;1.37;0.80;;;;;;;6.92;100.00;93824.94;4978211;28;20204;-85
2022/11/18 01:51:43;;;;;;;1.53;0.90;;;;;;;7.02;100.00;93824.75;4958677;28;20216;-85
2022/11/18 01:54:12;;;;;;;1.00;0.83;;;;;;;7.07;100.00;93828.44;4986240;28;20240;-85
2022/11/18 01:56:46;;;;;;;1.10;0.90;;;;;;;7.09;100.00;93830.84;4949009;28;20633;-85
2022/11/18 01:59:14;;;;;;;2.13;0.70;;;;;;;7.01;100.00;93834.25;4982052;28;20217;-84
2022/11/18 02:01:40;;;;;;;0.80;0.80;;;;;;;7.00;100.00;93835.25;4971907;28;20359;-85
2022/11/18 02:04:06;;;;;;;2.73;1.00;;;;;;;7.04;100.00;93849.41;4967097;28;20656;-86
2022/11/18 02:06:32;;;;;;;1.67;0.80;;;;;;;6.95;100.00;93858.16;4951813;28;20291;-85
2022/11/18 02:08:57;;;;;;;1.20;0.70;;;;;;;6.96;100.00;93866.69;4971538;28;20224;-86
2022/11/18 02:14:08;;;;;;;0.83;0.70;;;;;;;7.16;100.00;93867.13;4969462;28;20280;-83
2022/11/18 02:17:04;;;;;;;3.23;1.13;;;;;;;7.23;100.00;93870.63;4973273;28;20196;-81
2022/11/18 02:19:45;;;;;;;1.40;0.83;;;;;;;7.24;100.00;93877.41;4970596;28;20355;-83
2022/11/18 02:22:34;;;;;;;1.03;0.80;;;;;;;7.12;100.00;93876.16;4979807;28;20696;-83
2022/11/18 02:25:30;;;;;;;0.70;0.70;;;;;;;7.19;100.00;93870.16;4959192;28;20251;-84
2022/11/18 02:28:21;;;;;;;0.67;0.60;;;;;;;7.19;100.00;93875.34;4967645;28;20200;-83
2022/11/18 02:30:59;;;;;;;0.40;0.40;;;;;;;7.03;100.00;93877.97;4981242;28;20228;-83
2022/11/18 02:33:53;;;;;;;0.60;0.60;;;;;;;6.96;100.00;93887.34;4970509;28;20307;-84
2022/11/18 02:36:21;;;;;;;0.93;0.67;;;;;;;6.98;100.00;93888.81;4945045;28;20231;-83
2022/11/18 02:38:53;;;;;;;1.00;0.50;;;;;;;7.04;100.00;93887.31;4969019;28;20316;-83
2022/11/18 02:41:27;;;;;;;1.30;0.50;;;;;;;6.99;100.00;93885.25;4961779;28;20728;-84
2022/11/18 02:43:55;;;;;;;0.53;0.53;;;;;;;7.13;100.00;93890.69;4962966;28;20205;-84
2022/11/18 02:46:26;;;;;;;1.97;0.60;;;;;;;7.10;100.00;93890.03;4966952;28;20192;-83
2022/11/18 02:48:52;;;;;;;0.50;0.50;;;;;;;7.21;100.00;93885.50;4962490;28;20542;-84
2022/11/18 02:51:21;;;;;;;1.20;0.80;;;;;;;7.15;100.00;93894.69;4951876;29;20196;-84
2022/11/18 02:53:47;;;;;;;0.53;0.50;;;;;;;7.17;100.00;93892.78;4945684;28;20240;-84
2022/11/18 02:56:14;;;;;;;0.60;0.60;;;;;;;7.18;100.00;93893.56;4975169;28;20272;-83
2022/11/18 02:58:39;;;;;;;1.17;0.60;;;;;;;7.19;100.00;93898.56;4945312;28;20672;-84
2022/11/18 03:01:05;;;;;;;1.03;0.50;;;;;;;7.07;100.00;93897.34;4973993;28;20250;-84
2022/11/18 03:03:32;;;;;;;1.27;0.70;;;;;;;7.13;100.00;93908.75;4966044;28;20189;-84
2022/11/18 03:06:24;;;;;;;0.40;0.40;;;;;;;7.16;100.00;93911.03;4966382;28;20310;-83
2022/11/18 03:09:09;;;;;;;0.43;0.40;;;;;;;7.24;100.00;93918.72;4974318;28;20195;-84
2022/11/18 03:11:44;;;;;;;0.50;0.37;;;;;;;7.18;100.00;93919.38;4960767;28;20268;-83
2022/11/18 03:14:19;;;;;;;1.57;0.60;;;;;;;7.13;100.00;93917.28;4964533;28;20231;-85
2022/11/18 03:17:16;;;;;;;1.50;0.60;;;;;;;7.15;100.00;93910.19;4974294;28;20188;-84
2022/11/18 03:19:55;;;;;;;2.90;0.50;;;;;;;7.21;100.00;93913.88;4972099;28;20262;-84
2022/11/18 03:22:30;;;;;;;3.10;0.60;;;;;;;7.21;100.00;93916.47;4970321;28;20200;-85
2022/11/18 03:25:08;;;;;;;1.77;0.50;;;;;;;7.26;100.00;93927.13;4972208;28;20187;-84
2022/11/18 03:27:44;;;;;;;0.63;0.50;;;;;;;7.07;100.00;93926.53;4973414;28;20668;-84
2022/11/18 03:30:12;;;;;;;0.30;0.30;;;;;;;7.03;99.66;93927.00;4962562;28;20192;-84
2022/11/18 03:32:40;;;;;;;0.30;0.30;;;;;;;7.10;99.07;93933.94;4966173;28;20681;-84
2022/11/18 03:35:09;;;;;;;1.13;0.40;;;;;;;7.07;99.02;93934.28;4958963;28;20193;-83
2022/11/18 03:37:35;;;;;;;0.40;0.37;;;;;;;7.14;99.00;93936.97;4983505;28;20189;-85
2022/11/18 03:40:08;;;;;;;0.77;0.47;;;;;;;7.07;99.62;93933.47;4993070;28;20244;-85
2022/11/18 03:42:40;;;;;;;0.70;0.70;;;;;;;7.07;98.84;93939.44;4987975;28;20220;-85
2022/11/18 03:45:11;;;;;;;0.40;0.40;;;;;;;7.13;98.65;93942.31;4995815;28;20373;-86
2022/11/18 03:47:40;;;;;;;0.73;0.30;;;;;;;7.00;98.45;93938.47;4975160;28;20197;-84
2022/11/18 03:50:14;;;;;;;0.30;0.30;;;;;;;6.90;98.04;93949.97;4963702;28;20327;-84
2022/11/18 03:52:40;;;;;;;1.23;0.30;;;;;;;6.94;97.89;93939.13;4971007;28;20287;-83
2022/11/18 03:55:11;;;;;;;0.57;0.30;;;;;;;6.82;98.15;93946.41;4946097;28;20233;-84
2022/11/18 03:57:53;;;;;;;1.13;0.40;;;;;;;6.77;98.42;93945.28;4967614;28;20202;-85
2022/11/18 04:00:19;;;;;;;0.20;0.20;;;;;;;6.79;98.10;93946.72;4968489;28;20211;-85
2022/11/18 04:02:45;;;;;;;0.30;0.30;;;;;;;6.68;98.94;93954.81;4975824;28;20580;-85
2022/11/18 04:05:12;;;;;;;1.70;0.30;;;;;;;6.65;98.87;93956.91;4984513;28;20193;-86
2022/11/18 04:07:58;;;;;;;0.77;0.47;;;;;;;6.56;99.56;93958.69;4967038;28;20185;-84
2022/11/18 04:10:31;;;;;;;0.73;0.40;;;;;;;6.64;99.09;93966.44;4964267;28;20215;-85
2022/11/18 04:13:09;;;;;;;1.00;0.40;;;;;;;6.41;100.00;93968.03;4965434;28;20213;-84
2022/11/18 04:15:40;;;;;;;2.07;0.37;;;;;;;6.51;100.00;93974.63;4949841;28;20193;-84
2022/11/18 04:18:06;;;;;;;0.37;0.37;;;;;;;6.41;100.00;93971.41;4969496;28;20188;-84
2022/11/18 04:20:32;;;;;;;0.50;0.30;;;;;;;6.43;100.00;93971.25;4975197;28;20200;-84
2022/11/18 04:22:58;;;;;;;2.47;0.30;;;;;;;6.37;100.00;93975.28;4965256;28;20816;-84
2022/11/18 04:25:23;;;;;;;0.40;0.40;;;;;;;6.46;99.02;93969.16;4969169;28;20228;-84
2022/11/18 04:27:49;;;;;;;0.30;0.30;;;;;;;6.42;98.56;93970.44;4949620;28;20575;-84
2022/11/18 04:30:15;;;;;;;0.30;0.30;;;;;;;6.53;98.84;93969.31;4977141;28;20195;-84
2022/11/18 04:32:40;;;;;;;0.30;0.30;;;;;;;6.55;98.96;93972.56;4972497;28;20217;-84
2022/11/18 04:35:05;;;;;;;0.33;0.30;;;;;;;6.42;99.75;93978.19;4968291;28;20684;-84
2022/11/18 04:37:31;;;;;;;0.33;0.33;;;;;;;6.56;99.46;93986.25;4975479;28;20219;-84
2022/11/18 04:39:56;;;;;;;0.63;0.40;;;;;;;6.66;99.17;93982.53;4972848;28;20323;-84
2022/11/18 04:42:21;;;;;;;0.57;0.50;;;;;;;6.61;99.69;93983.97;4967093;28;20220;-83
2022/11/18 04:44:46;;;;;;;0.67;0.40;;;;;;;6.56;100.00;93987.06;4947262;28;20802;-84
2022/11/18 04:47:12;;;;;;;0.40;0.40;;;;;;;6.53;100.00;93990.75;4973395;28;20193;-84
2022/11/18 04:49:37;;;;;;;2.27;0.40;;;;;;;6.55;100.00;93990.59;4962619;28;20275;-83
2022/11/18 04:52:03;;;;;;;0.57;0.40;;;;;;;6.56;100.00;93984.47;4953744;28;20225;-83
2022/11/18 04:54:28;;;;;;;0.60;0.43;;;;;;;6.53;100.00;93997.69;4969457;28;20284;-84
2022/11/18 04:56:54;;;;;;;0.83;0.47;;;;;;;6.56;99.85;93991.41;4964305;28;20189;-84
2022/11/18 04:59:22;;;;;;;2.97;0.47;;;;;;;6.36;100.00;93988.31;4948669;28;20231;-84
2022/11/18 05:01:48;;;;;;;0.73;0.40;;;;;;;6.47;100.00;93988.81;4975221;28;20213;-84
2022/11/18 05:04:15;;;;;;;0.40;0.40;;;;;;;6.58;100.00;93997.22;4963715;28;20249;-85
2022/11/18 05:06:41;;;;;;;2.63;0.50;;;;;;;6.55;100.00;93988.03;4964009;28;20204;-84
2022/11/18 05:09:06;;;;;;;0.30;0.30;;;;;;;6.59;99.16;93985.91;4965127;28;20655;-84
2022/11/18 05:14:15;;;;;;;1.27;0.40;;;;;;;6.44;99.68;93983.16;4963244;28;20211;-85
2022/11/18 05:16:41;;;;;;;0.87;0.37;;;;;;;6.56;99.38;93987.06;4967696;28;20189;-84
2022/11/18 05:19:06;;;;;;;0.40;0.40;;;;;;;6.57;98.66;93983.50;4974660;28;20228;-84
2022/11/18 05:21:32;;;;;;;0.30;0.30;;;;;;;6.39;98.13;93986.25;4961643;28;20320;-84
2022/11/18 05:23:58;;;;;;;0.30;0.30;;;;;;;6.45;97.78;93985.59;4961176;28;20222;-84
2022/11/18 05:26:23;;;;;;;0.50;0.27;;;;;;;6.44;97.25;93994.28;4974295;28;20279;-85
2022/11/18 05:28:49;;;;;;;0.20;0.20;;;;;;;6.36;97.19;93996.06;4950485;28;20239;-84
2022/11/18 05:31:15;;;;;;;1.57;0.40;;;;;;;6.24;97.44;93992.97;4946704;28;20192;-84
2022/11/18 05:33:41;;;;;;;0.30;0.30;;;;;;;6.39;96.84;94001.72;4970100;28;20574;-84
2022/11/18 05:36:09;;;;;;;0.40;0.40;;;;;;;6.27;97.43;94007.31;4967429;28;20223;-84
2022/11/18 05:38:34;;;;;;;0.30;0.30;;;;;;;6.31;97.23;94000.91;4967159;28;20283;-84
2022/11/18 05:41:00;;;;;;;0.30;0.30;;;;;;;6.13;96.99;94008.75;4965881;28;20757;-82
2022/11/18 05:43:26;;;;;;;0.30;0.30;;;;;;;6.28;97.43;94009.75;4969295;28;20235;-83
2022/11/18 05:45:52;;;;;;;0.30;0.30;;;;;;;6.30;97.09;94007.81;4963115;28;20216;-84
2022/11/18 05:48:17;;;;;;;0.20;0.20;;;;;;;6.26;97.38;94014.25;4972595;28;20193;-84
2022/11/18 05:50:45;;;;;;;1.40;0.30;;;;;;;6.26;97.85;94016.81;4961597;28;20208;-84
2022/11/18 05:53:11;;;;;;;0.30;0.30;;;;;;;6.11;98.17;94018.44;4973337;28;20217;-86
2022/11/18 05:55:41;;;;;;;0.40;0.30;;;;;;;6.17;98.31;94018.56;4971613;28;20188;-84
2022/11/18 05:58:06;;;;;;;0.30;0.30;;;;;;;6.16;98.41;94018.75;4974887;28;20200;-84
2022/11/18 06:00:32;;;;;;;0.23;0.23;;;;;;;6.07;98.78;94017.91;4972783;28;20212;-83
2022/11/18 06:02:58;;;;;;;0.20;0.20;;;;;;;6.14;98.55;94025.84;4946953;28;20340;-83
2022/11/18 06:05:25;;;;;;;0.40;0.40;;;;;;;6.21;98.23;94019.88;4966389;28;20207;-84
2022/11/18 06:07:50;;;;;;;0.30;0.30;;;;;;;6.32;97.38;94025.72;4972520;28;20256;-84
2022/11/18 06:10:25;;;;;;;0.37;0.30;;;;;;;6.29;97.27;94029.41;4947826;28;20184;-83
2022/11/18 06:12:53;;;;;;;0.40;0.40;;;;;;;6.26;97.97;94027.13;4965094;28;20681;-83
2022/11/18 06:15:21;;;;;;;0.30;0.30;;;;;;;6.23;98.24;94035.19;4970225;28;20204;-84
2022/11/18 06:18:16;;;;;;;0.60;0.30;;;;;;;6.38;97.30;94043.94;4961758;28;20192;-83
2022/11/18 06:20:41;;;;;;;0.30;0.30;;;;;;;6.28;98.08;94034.75;4930603;29;20225;-84
2022/11/18 06:23:06;;;;;;;0.50;0.40;;;;;;;6.28;97.91;94039.91;4935015;29;20229;-84
2022/11/18 06:25:32;;;;;;;0.30;0.30;;;;;;;6.34;98.10;94036.66;4934807;29;20237;-84
2022/11/18 06:28:00;;;;;;;0.40;0.40;;;;;;;6.45;97.81;94042.34;4912531;29;20198;-84
2022/11/18 06:30:25;;;;;;;2.00;0.40;;;;;;;6.44;98.11;94048.44;4892611;29;20198;-83
2022/11/18 06:32:50;;;;;;;0.30;0.30;;;;;;;6.38;98.32;94046.50;4891486;29;20608;-84
2022/11/18 06:35:16;;;;;;;0.50;0.50;;;;;;;6.39;98.90;94052.47;4914797;29;20260;-84
2022/11/18 06:37:41;;;;;;;0.43;0.43;;;;;;;6.31;99.21;94053.25;4933283;29;20221;-84
2022/11/18 06:40:07;;;;;;;1.13;0.50;;;;;;;6.35;99.06;94061.47;4933414;29;20213;-83
2022/11/18 06:45:16;;;;;;;0.83;0.50;;;;;;;6.31;99.93;94071.31;4919120;29;20280;-84
2022/11/18 06:47:41;;;;;;;0.40;0.40;;;;;;;6.35;99.89;94072.59;4917066;29;20936;-84
2022/11/18 06:50:07;;;;;;;0.73;0.60;;;;;;;6.39;99.72;94081.63;4917117;29;20206;-83
2022/11/18 06:52:32;;;;;;;0.43;0.40;;;;;;;6.45;100.00;94073.28;4932940;29;20277;-83
2022/11/18 06:54:58;;;;;;;0.40;0.40;;;;;;;6.45;99.74;94082.78;4908848;29;20194;-83
2022/11/18 06:57:23;;;;;;;0.50;0.50;;;;;;;6.45;100.00;94086.19;4958417;28;20209;-84
2022/11/18 06:59:49;;;;;;;0.40;0.40;;;;;;;6.45;100.00;94087.94;4972947;28;20205;-84
2022/11/18 07:02:14;;;;;;;0.40;0.40;;;;;;;6.43;100.00;94090.66;4970691;28;20587;-84
2022/11/18 07:04:40;;;;;;;0.30;0.20;;;;;;;6.42;100.00;94098.56;4971606;28;20192;-84
2022/11/18 07:07:06;;;;;;;0.40;0.40;;;;;;;6.50;100.00;94098.59;4970619;28;20188;-83
2022/11/18 07:09:33;;;;;;;0.40;0.33;;;;;;;6.56;99.83;94104.91;4982536;28;20192;-84
2022/11/18 07:11:58;;;;;;;0.40;0.40;;;;;;;6.49;100.00;94108.09;4984560;28;20216;-84
2022/11/18 07:14:23;;;;;;;0.27;0.27;;;;;;;6.48;100.00;94110.84;4975246;28;20192;-84
2022/11/18 07:16:49;;;;;;;0.50;0.50;;;;;;;6.56;99.54;94120.38;4943823;28;20201;-84
2022/11/18 07:19:14;;;;;;;1.10;0.80;;;;;;;6.49;100.00;94125.34;4975677;28;20261;-84
2022/11/18 07:21:40;;;;;;;1.40;0.63;;;;;;;6.50;99.91;94130.34;4974975;28;20232;-84
2022/11/18 07:24:07;;;;;;;0.50;0.50;;;;;;;6.53;99.59;94132.59;4974303;28;20184;-84
2022/11/18 07:26:33;;;;;;;0.50;0.50;;;;;;;6.58;99.15;94136.47;4983654;28;20189;-83
2022/11/18 07:28:58;;;;;;;0.50;0.40;;;;;;;6.58;99.88;94136.47;4953997;28;20277;-83
2022/11/18 07:31:23;;;;;;;0.43;0.43;;;;;;;6.51;100.00;94134.53;4969746;28;20307;-84
2022/11/18 07:33:52;;;;;;;1.33;0.63;;;;;;;6.57;100.00;94143.41;4969295;28;20192;-84
2022/11/18 07:36:22;;;;;;;0.50;0.50;;;;;;;6.68;99.44;94145.69;4964974;28;20283;-82
2022/11/18 07:38:48;;;;;;;0.40;0.33;;;;;;;6.58;100.00;94150.19;4965723;28;20244;-83
2022/11/18 07:41:15;;;;;;;1.00;0.70;;;;;;;6.61;99.93;94149.06;4972216;28;20246;-84
2022/11/18 07:43:41;;;;;;;0.80;0.80;;;;;;;6.67;99.71;94158.75;4965728;28;20235;-83
2022/11/18 07:46:20;;;;;;;1.33;1.13;;;;;;;6.69;99.91;94161.97;4965366;28;20192;-83
2022/11/18 07:48:46;;;;;;;2.33;1.87;;;;;;;6.69;100.00;94172.28;4975546;28;20267;-83
2022/11/18 07:51:13;;;;;;;5.67;3.57;;;;;;;6.73;99.85;94176.19;4973824;28;20189;-83
2022/11/18 07:53:39;;;;;;;6.23;3.50;;;;;;;6.72;99.99;94177.16;4967380;28;20645;-84
2022/11/18 07:56:05;;;;;;;1.67;1.50;;;;;;;6.60;100.00;94179.19;4965363;28;20696;-84
2022/11/18 07:58:30;;;;;;;2.43;0.90;;;;;;;6.76;100.00;94178.44;4973967;28;20310;-84
2022/11/18 08:00:56;;;;;;;0.83;0.70;;;;;;;6.73;100.00;94192.47;4972754;28;20241;-84
2022/11/18 08:03:27;;;;;;;0.60;0.60;;;;;;;6.87;100.00;94187.66;4957839;28;20225;-83
2022/11/18 08:06:03;;;;;;;0.67;0.63;;;;;;;6.94;100.00;94197.19;4973421;28;20205;-84
2022/11/18 08:08:29;;;;;;;0.80;0.63;;;;;;;6.71;100.00;94191.00;4975035;28;20552;-83
2022/11/18 08:10:59;;;;;;;0.40;0.40;;;;;;;6.96;100.00;94197.84;4948667;28;20200;-83
2022/11/18 08:13:25;;;;;;;1.47;0.60;;;;;;;6.85;100.00;94198.16;4966823;28;20262;-85
2022/11/18 08:15:50;;;;;;;0.50;0.50;;;;;;;6.77;100.00;94198.13;4954147;28;20195;-84
2022/11/18 08:18:16;;;;;;;1.17;0.67;;;;;;;6.97;100.00;94201.22;4963834;28;20189;-84
2022/11/18 08:20:41;;;;;;;0.80;0.50;;;;;;;6.98;100.00;94205.41;4971623;28;20220;-84
2022/11/18 08:23:06;;;;;;;1.17;0.67;;;;;;;7.09;100.00;94205.94;4945116;29;20311;-84
2022/11/18 08:25:32;;;;;;;0.40;0.40;;;;;;;7.04;100.00;94203.00;4951374;28;20193;-85
2022/11/18 08:27:57;;;;;;;0.40;0.40;;;;;;;7.18;100.00;94205.97;4959567;28;20232;-83
2022/11/18 08:30:22;;;;;;;0.53;0.53;;;;;;;7.25;99.61;94205.16;4950479;28;20739;-84
2022/11/18 08:32:48;;;;;;;2.53;0.87;;;;;;;7.23;100.00;94208.84;4955155;28;20209;-83
2022/11/18 08:35:13;;;;;;;0.40;0.40;;;;;;;7.18;99.90;94206.75;4966822;28;20197;-84
2022/11/18 08:37:38;;;;;;;0.30;0.30;;;;;;;7.32;99.58;94207.88;4975580;28;20203;-85
2022/11/18 08:40:04;;;;;;;0.37;0.37;;;;;;;7.33;99.54;94206.91;4974686;28;20216;-84
2022/11/18 08:42:30;;;;;;;0.70;0.60;;;;;;;7.42;99.44;94208.56;4967828;28;20276;-85
2022/11/18 08:44:55;;;;;;;0.60;0.53;;;;;;;7.43;99.71;94211.97;4975745;28;20196;-85
2022/11/18 08:47:20;;;;;;;0.53;0.40;;;;;;;7.49;99.75;94204.34;4975580;28;20193;-84
2022/11/18 08:49:46;;;;;;;0.87;0.67;;;;;;;7.65;99.22;94219.84;4975787;28;20231;-84
2022/11/18 08:52:11;;;;;;;0.40;0.40;;;;;;;7.64;99.09;94215.66;4963938;28;20339;-84
2022/11/18 08:54:36;;;;;;;1.50;0.80;;;;;;;7.72;98.95;94216.63;4982055;28;20216;-85
2022/11/18 08:57:02;;;;;;;1.03;0.80;;;;;;;7.74;98.64;94204.34;4960264;28;20200;-85
2022/11/18 08:59:27;;;;;;;0.70;0.70;;;;;;;7.85;98.35;94214.34;4957944;28;20310;-85
2022/11/18 09:01:52;;;;;;;1.40;0.97;;;;;;;7.79;98.51;94223.56;4949655;28;20228;-84
2022/11/18 09:04:18;;;;;;;1.27;1.00;;;;;;;7.97;97.87;94225.97;4973088;28;20296;-83
2022/11/18 09:06:43;;;;;;;1.57;1.30;;;;;;;7.95;97.98;94236.50;4968185;28;20196;-84
2022/11/18 09:09:08;;;;;;;2.87;1.40;;;;;;;7.92;98.24;94228.22;4969279;28;20821;-84
2022/11/18 09:11:34;;;;;;;1.40;1.30;;;;;;;7.99;97.43;94234.38;4975647;28;20212;-83
2022/11/18 09:14:00;;;;;;;4.80;1.80;;;;;;;7.92;98.09;94233.41;4974922;28;20189;-84
2022/11/18 09:16:27;;;;;;;1.73;1.50;;;;;;;8.01;98.34;94232.44;4966639;28;20193;-85
2022/11/18 09:18:54;;;;;;;1.77;1.40;;;;;;;8.09;97.47;94235.00;4973482;28;20602;-84
2022/11/18 09:21:20;;;;;;;1.50;1.40;;;;;;;8.05;97.22;94233.72;4965786;28;20217;-84
2022/11/18 09:23:45;;;;;;;2.33;1.60;;;;;;;7.92;97.27;94238.56;4955613;28;20677;-84
2022/11/18 09:26:13;;;;;;;3.20;1.40;;;;;;;7.85;98.62;94253.91;4957800;28;20720;-84
2022/11/18 09:28:38;;;;;;;1.67;1.57;;;;;;;7.73;99.05;94241.50;4966772;28;20193;-84
2022/11/18 09:31:08;;;;;;;2.57;1.50;;;;;;;8.03;97.54;94250.34;4971520;28;20197;-84
2022/11/18 09:33:35;;;;;;;3.43;1.60;;;;;;;8.01;97.49;94247.94;4966526;28;20203;-84
2022/11/18 09:36:00;;;;;;;1.60;1.50;;;;;;;7.91;98.65;94258.44;4974510;28;20185;-83
2022/11/18 09:38:28;;;;;;;1.73;1.53;;;;;;;7.81;98.87;94262.97;4974713;28;20211;-84
2022/11/18 09:41:08;;;;;;;2.97;1.53;;;;;;;7.77;99.46;94266.03;4971871;28;20217;-83
2022/11/18 09:43:47;;;;;;;2.50;1.83;;;;;;;7.69;100.00;94273.81;4985771;28;20255;-83
2022/11/18 09:46:30;;;;;;;1.63;1.53;;;;;;;7.76;99.05;94269.59;5000322;28;20188;-84
2022/11/18 09:49:12;;;;;;;2.17;1.80;;;;;;;7.75;99.90;94273.16;4971689;28;20196;-84
2022/11/18 09:51:40;;;;;;;2.93;2.13;;;;;;;7.62;100.00;94274.44;4975940;28;20193;-84
2022/11/18 09:54:25;;;;;;;4.17;2.13;;;;;;;7.86;99.22;94278.00;4996721;28;20189;-84
2022/11/18 09:56:52;;;;;;;3.93;2.17;;;;;;;7.73;99.10;94280.25;4970489;28;20181;-84
2022/11/18 09:59:23;;;;;;;2.20;1.67;;;;;;;8.07;97.77;94285.28;4963802;28;20188;-84
2022/11/18 10:01:50;;;;;;;3.10;1.77;;;;;;;8.21;96.83;94280.22;4963297;28;20200;-85
2022/11/18 10:04:17;;;;;;;4.93;1.80;;;;;;;8.43;96.39;94288.31;4972146;28;20184;-84
2022/11/18 10:06:44;;;;;;;2.87;1.70;;;;;;;8.38;96.12;94286.22;4970275;28;20188;-84
2022/11/18 10:09:19;;;;;;;2.20;1.83;;;;;;;8.47;95.88;94281.81;4943706;28;20219;-83
2022/11/18 10:12:06;;;;;;;2.63;2.10;;;;;;;8.66;95.63;94294.41;4979126;28;20215;-83
2022/11/18 10:14:58;;;;;;;3.10;1.90;;;;;;;8.58;95.22;94291.84;4979023;28;20656;-82
2022/11/18 10:17:37;;;;;;;3.63;1.60;;;;;;;8.76;94.63;94289.84;4972334;28;20193;-83
2022/11/18 10:20:09;;;;;;;2.87;1.93;;;;;;;8.77;94.28;94294.06;4957371;28;20212;-84
2022/11/18 10:23:03;;;;;;;3.20;1.60;;;;;;;8.54;93.58;94300.09;4962978;28;20224;-82
2022/11/18 10:25:28;;;;;;;4.03;2.00;;;;;;;8.69;93.09;94298.44;4983069;28;20264;-82
2022/11/18 10:27:54;;;;;;;1.87;1.53;;;;;;;8.92;93.99;94303.69;4967109;28;20185;-83
2022/11/18 10:30:24;;;;;;;3.47;1.83;;;;;;;9.10;93.18;94301.69;4974375;28;20733;-83
2022/11/18 10:32:53;;;;;;;3.07;2.00;;;;;;;9.04;91.84;94308.34;4955258;28;20752;-83
2022/11/18 10:35:34;;;;;;;1.67;1.20;;;;;;;8.90;91.68;94301.28;4976816;28;20189;-84
2022/11/18 10:38:20;;;;;;;1.57;1.40;;;;;;;8.50;94.02;94310.78;4971170;28;20229;-84
2022/11/18 10:40:56;;;;;;;2.03;1.30;;;;;;;8.51;94.61;94306.41;4961585;28;20216;-84
2022/11/18 10:44:00;;;;;;;2.07;1.07;;;;;;;8.54;93.42;94319.00;4961726;28;20268;-85
2022/11/18 10:46:29;;;;;;;2.03;1.03;;;;;;;8.47;93.28;94321.44;4882699;29;20197;-84
2022/11/18 10:49:11;;;;;;;2.03;1.17;;;;;;;8.81;92.57;94320.41;4899177;29;20194;-83
2022/11/18 10:51:39;;;;;;;1.90;1.33;;;;;;;8.69;92.70;94324.31;4877700;29;20218;-83
2022/11/18 10:54:17;;;;;;;2.77;1.53;;;;;;;8.73;93.44;94321.22;4899726;29;20222;-83
2022/11/18 10:56:53;;;;;;;2.27;1.60;;;;;;;8.74;91.88;94328.00;4915961;29;20218;-84
2022/11/18 10:59:29;;;;;;;2.27;1.90;;;;;;;8.80;90.92;94337.72;4901711;29;20234;-82
2022/11/18 11:02:11;;;;;;;2.63;1.63;;;;;;;8.83;90.93;94335.75;4917234;29;20218;-83
2022/11/18 11:04:37;;;;;;;2.17;1.47;;;;;;;8.86;90.79;94331.06;4898783;29;20277;-84
2022/11/18 11:07:26;;;;;;;1.87;1.63;;;;;;;8.85;90.74;94334.63;4914590;29;20345;-84
2022/11/18 11:10:03;;;;;;;2.40;1.47;;;;;;;8.79;90.94;94337.88;4914866;29;20321;-82
2022/11/18 11:12:31;;;;;;;2.30;1.70;;;;;;;8.86;90.71;94345.78;4898557;29;20213;-82
2022/11/18 11:15:00;;;;;;;2.30;1.50;;;;;;;8.83;91.61;94343.53;4882503;29;20557;-81
2022/11/18 11:17:30;;;;;;;1.47;1.33;;;;;;;8.64;91.62;94340.34;4938405;28;20197;-83
2022/11/18 11:20:17;;;;;;;2.73;1.70;;;;;;;8.34;93.30;94338.41;4971166;28;20227;-83
2022/11/18 11:22:43;;;;;;;1.50;1.40;;;;;;;8.31;94.21;94346.50;4967543;28;20712;-83
2022/11/18 11:26:00;;;;;;;1.73;1.40;;;;;;;8.38;95.10;94347.50;4974775;28;20187;-83
2022/11/18 11:28:30;;;;;;;2.10;1.90;;;;;;;8.44;94.04;94352.03;4872604;29;20203;-83
2022/11/18 11:31:16;;;;;;;4.50;2.23;;;;;;;8.51;94.10;94347.81;4966469;28;20200;-82
2022/11/18 11:33:53;;;;;;;2.30;2.00;;;;;;;8.57;94.01;94348.91;4989980;28;20558;-84
2022/11/18 11:36:27;;;;;;;3.03;2.13;;;;;;;8.50;93.70;94346.19;4966590;28;20199;-83
2022/11/18 11:39:24;;;;;;;2.50;1.43;;;;;;;8.37;94.73;94353.63;4963963;28;20573;-83
2022/11/18 11:42:24;;;;;;;3.53;1.30;;;;;;;8.47;94.58;94351.69;4985239;28;20688;-83
2022/11/18 11:45:20;;;;;;;1.87;1.50;;;;;;;8.21;95.87;94347.47;4948172;28;20236;-82
2022/11/18 11:47:56;;;;;;;4.30;1.70;;;;;;;8.19;95.88;94356.34;4952032;28;20237;-84
2022/11/18 11:50:32;;;;;;;7.13;1.93;;;;;;;7.94;97.17;94353.75;4972378;28;20189;-84
2022/11/18 11:53:00;;;;;;;2.27;1.80;;;;;;;8.08;97.07;94357.50;4969029;28;20212;-84
2022/11/18 11:55:26;;;;;;;4.33;2.17;;;;;;;7.89;96.85;94358.63;4964719;28;20212;-84
2022/11/18 11:58:10;;;;;;;4.27;1.93;;;;;;;7.96;97.44;94356.22;4975029;28;20188;-83
2022/11/18 12:00:42;;;;;;;2.60;1.57;;;;;;;7.73;97.85;94357.78;4974836;28;20585;-84
2022/11/18 12:03:14;;;;;;;2.63;1.90;;;;;;;7.90;97.17;94359.44;4973840;28;20625;-84
2022/11/18 12:05:41;;;;;;;2.67;1.90;;;;;;;7.88;97.22;94361.38;4971946;28;20188;-83